sensor_id;sensor_type;location;lat;lon;timestamp;pressure;altitude;pressure_sealevel;temperature;humidity
30463;BME280;17256;43.618;25.336;2022-07-06T00:01:46;100510.69;;;24.16;100.00
30463;BME280;17256;43.618;25.336;2022-07-06T00:04:12;100308.84;;;22.79;100.00
30463;BME280;17256;43.618;25.336;2022-07-06T00:06:38;100354.94;;;23.01;100.00
30463;BME280;17256;43.618;25.336;2022-07-06T00:09:04;100507.16;;;24.01;100.00
30463;BME280;17256;43.618;25.336;2022-07-06T00:11:30;100431.25;;;23.38;100.00
30463;BME280;17256;43.618;25.336;2022-07-06T00:13:56;100251.31;;;22.52;100.00
30463;BME280;17256;43.618;25.336;2022-07-06T00:16:22;100322.28;;;22.87;100.00
30463;BME280;17256;43.618;25.336;2022-07-06T00:18:48;100293.00;;;22.59;100.00
30463;BME280;17256;43.618;25.336;2022-07-06T00:21:14;100348.31;;;22.87;100.00
30463;BME280;17256;43.618;25.336;2022-07-06T00:23:40;100261.78;;;22.31;100.00
30463;BME280;17256;43.618;25.336;2022-07-06T00:26:06;100391.38;;;23.07;100.00
30463;BME280;17256;43.618;25.336;2022-07-06T00:28:32;100395.00;;;23.02;100.00
30463;BME280;17256;43.618;25.336;2022-07-06T00:30:58;100433.28;;;23.22;100.00
30463;BME280;17256;43.618;25.336;2022-07-06T00:33:24;100327.72;;;22.48;100.00
30463;BME280;17256;43.618;25.336;2022-07-06T00:35:50;100393.66;;;22.89;100.00
30463;BME280;17256;43.618;25.336;2022-07-06T00:38:15;100518.34;;;23.61;100.00
30463;BME280;17256;43.618;25.336;2022-07-06T00:40:41;100383.88;;;22.87;100.00
30463;BME280;17256;43.618;25.336;2022-07-06T00:43:07;100337.50;;;22.50;100.00
30463;BME280;17256;43.618;25.336;2022-07-06T00:45:33;100420.81;;;22.94;100.00
30463;BME280;17256;43.618;25.336;2022-07-06T00:47:59;100418.56;;;22.96;100.00
30463;BME280;17256;43.618;25.336;2022-07-06T00:50:24;100332.25;;;22.28;100.00
30463;BME280;17256;43.618;25.336;2022-07-06T00:53:00;100498.78;;;23.41;100.00
30463;BME280;17256;43.618;25.336;2022-07-06T00:55:33;100421.66;;;22.94;100.00
30463;BME280;17256;43.618;25.336;2022-07-06T00:58:03;100320.22;;;22.38;100.00
30463;BME280;17256;43.618;25.336;2022-07-06T01:00:30;100270.78;;;22.13;100.00
30463;BME280;17256;43.618;25.336;2022-07-06T01:02:56;100317.09;;;22.45;100.00
30463;BME280;17256;43.618;25.336;2022-07-06T01:05:22;100221.31;;;21.78;100.00
30463;BME280;17256;43.618;25.336;2022-07-06T01:07:49;100243.66;;;21.93;100.00
30463;BME280;17256;43.618;25.336;2022-07-06T01:10:16;100449.88;;;23.13;100.00
30463;BME280;17256;43.618;25.336;2022-07-06T01:12:43;100244.19;;;22.00;100.00
30463;BME280;17256;43.618;25.336;2022-07-06T01:15:18;100249.22;;;21.98;100.00
30463;BME280;17256;43.618;25.336;2022-07-06T01:17:45;100304.84;;;22.35;100.00
30463;BME280;17256;43.618;25.336;2022-07-06T01:20:22;100304.00;;;22.35;100.00
30463;BME280;17256;43.618;25.336;2022-07-06T01:22:50;100390.31;;;22.87;100.00
30463;BME280;17256;43.618;25.336;2022-07-06T01:25:19;100409.63;;;22.89;100.00
30463;BME280;17256;43.618;25.336;2022-07-06T01:27:46;100266.28;;;22.02;100.00
30463;BME280;17256;43.618;25.336;2022-07-06T01:30:14;100460.16;;;23.33;100.00
30463;BME280;17256;43.618;25.336;2022-07-06T01:32:40;100281.34;;;22.31;100.00
30463;BME280;17256;43.618;25.336;2022-07-06T01:35:10;100324.84;;;22.68;100.00
30463;BME280;17256;43.618;25.336;2022-07-06T01:37:36;100380.78;;;22.88;100.00
30463;BME280;17256;43.618;25.336;2022-07-06T01:40:04;100294.78;;;22.19;100.00
30463;BME280;17256;43.618;25.336;2022-07-06T01:42:30;100291.16;;;22.24;100.00
30463;BME280;17256;43.618;25.336;2022-07-06T01:44:56;100390.34;;;22.82;100.00
30463;BME280;17256;43.618;25.336;2022-07-06T01:47:21;100434.75;;;23.04;100.00
30463;BME280;17256;43.618;25.336;2022-07-06T01:49:49;100258.47;;;22.04;100.00
30463;BME280;17256;43.618;25.336;2022-07-06T01:52:15;100277.19;;;22.19;100.00
30463;BME280;17256;43.618;25.336;2022-07-06T01:54:41;100437.78;;;23.23;100.00
30463;BME280;17256;43.618;25.336;2022-07-06T01:57:07;100273.00;;;22.16;100.00
30463;BME280;17256;43.618;25.336;2022-07-06T01:59:33;100125.59;;;21.32;100.00
30463;BME280;17256;43.618;25.336;2022-07-06T02:01:58;100206.81;;;21.66;100.00
30463;BME280;17256;43.618;25.336;2022-07-06T02:04:24;100307.63;;;22.25;100.00
30463;BME280;17256;43.618;25.336;2022-07-06T02:06:52;100314.34;;;22.29;100.00
30463;BME280;17256;43.618;25.336;2022-07-06T02:09:18;100326.38;;;22.30;100.00
30463;BME280;17256;43.618;25.336;2022-07-06T02:11:44;100296.78;;;22.08;100.00
30463;BME280;17256;43.618;25.336;2022-07-06T02:14:10;100278.28;;;22.02;100.00
30463;BME280;17256;43.618;25.336;2022-07-06T02:16:38;100285.88;;;22.07;100.00
30463;BME280;17256;43.618;25.336;2022-07-06T02:19:04;100296.19;;;22.17;100.00
30463;BME280;17256;43.618;25.336;2022-07-06T02:21:29;100399.56;;;22.72;100.00
30463;BME280;17256;43.618;25.336;2022-07-06T02:23:55;100374.16;;;22.49;100.00
30463;BME280;17256;43.618;25.336;2022-07-06T02:26:26;100455.81;;;22.96;100.00
30463;BME280;17256;43.618;25.336;2022-07-06T02:28:52;100295.94;;;22.13;100.00
30463;BME280;17256;43.618;25.336;2022-07-06T02:31:19;100273.88;;;21.86;100.00
30463;BME280;17256;43.618;25.336;2022-07-06T02:33:46;100307.38;;;22.22;100.00
30463;BME280;17256;43.618;25.336;2022-07-06T02:36:13;100245.91;;;21.81;100.00
30463;BME280;17256;43.618;25.336;2022-07-06T02:38:39;100379.72;;;22.64;100.00
30463;BME280;17256;43.618;25.336;2022-07-06T02:41:04;100293.44;;;22.06;100.00
30463;BME280;17256;43.618;25.336;2022-07-06T02:43:30;100418.06;;;22.84;100.00
30463;BME280;17256;43.618;25.336;2022-07-06T02:45:56;100353.81;;;22.33;100.00
30463;BME280;17256;43.618;25.336;2022-07-06T02:48:22;100244.28;;;21.60;100.00
30463;BME280;17256;43.618;25.336;2022-07-06T02:50:49;100364.91;;;22.53;100.00
30463;BME280;17256;43.618;25.336;2022-07-06T02:53:17;100318.00;;;22.20;100.00
30463;BME280;17256;43.618;25.336;2022-07-06T02:55:44;100312.16;;;22.11;100.00
30463;BME280;17256;43.618;25.336;2022-07-06T02:58:10;100366.06;;;22.42;100.00
30463;BME280;17256;43.618;25.336;2022-07-06T03:00:36;100302.94;;;22.05;100.00
30463;BME280;17256;43.618;25.336;2022-07-06T03:03:02;100272.16;;;22.05;100.00
30463;BME280;17256;43.618;25.336;2022-07-06T03:05:28;100395.41;;;22.55;100.00
30463;BME280;17256;43.618;25.336;2022-07-06T03:07:54;100196.78;;;21.44;100.00
30463;BME280;17256;43.618;25.336;2022-07-06T03:10:20;100214.38;;;21.50;100.00
30463;BME280;17256;43.618;25.336;2022-07-06T03:12:45;100249.31;;;21.63;100.00
30463;BME280;17256;43.618;25.336;2022-07-06T03:15:11;100201.84;;;21.32;100.00
30463;BME280;17256;43.618;25.336;2022-07-06T03:17:40;100221.06;;;21.54;100.00
30463;BME280;17256;43.618;25.336;2022-07-06T03:20:07;100197.03;;;21.23;100.00
30463;BME280;17256;43.618;25.336;2022-07-06T03:22:32;100261.03;;;21.55;100.00
30463;BME280;17256;43.618;25.336;2022-07-06T03:24:59;100185.63;;;21.29;100.00
30463;BME280;17256;43.618;25.336;2022-07-06T03:27:25;100382.28;;;22.45;100.00
30463;BME280;17256;43.618;25.336;2022-07-06T03:29:50;100295.91;;;22.03;100.00
30463;BME280;17256;43.618;25.336;2022-07-06T03:32:17;100354.91;;;22.32;100.00
30463;BME280;17256;43.618;25.336;2022-07-06T03:34:44;100466.63;;;23.23;100.00
30463;BME280;17256;43.618;25.336;2022-07-06T03:37:10;100302.06;;;22.20;100.00
30463;BME280;17256;43.618;25.336;2022-07-06T03:39:38;100325.72;;;22.53;100.00
30463;BME280;17256;43.618;25.336;2022-07-06T03:42:04;100478.59;;;23.44;100.00
30463;BME280;17256;43.618;25.336;2022-07-06T03:44:31;100387.72;;;23.06;100.00
30463;BME280;17256;43.618;25.336;2022-07-06T03:46:57;100294.63;;;22.65;100.00
30463;BME280;17256;43.618;25.336;2022-07-06T03:49:25;100446.22;;;23.72;100.00
30463;BME280;17256;43.618;25.336;2022-07-06T03:51:53;100235.22;;;22.78;100.00
30463;BME280;17256;43.618;25.336;2022-07-06T03:54:21;100342.03;;;23.55;100.00
30463;BME280;17256;43.618;25.336;2022-07-06T03:56:48;100294.84;;;23.28;100.00
30463;BME280;17256;43.618;25.336;2022-07-06T03:59:15;100470.63;;;24.45;100.00
30463;BME280;17256;43.618;25.336;2022-07-06T04:01:41;100401.09;;;24.08;100.00
30463;BME280;17256;43.618;25.336;2022-07-06T04:04:10;100351.66;;;23.83;100.00
30463;BME280;17256;43.618;25.336;2022-07-06T04:06:39;100335.78;;;23.68;100.00
30463;BME280;17256;43.618;25.336;2022-07-06T04:09:05;100278.69;;;23.59;100.00
30463;BME280;17256;43.618;25.336;2022-07-06T04:11:31;100438.84;;;24.54;100.00
30463;BME280;17256;43.618;25.336;2022-07-06T04:13:57;100334.72;;;23.93;100.00
30463;BME280;17256;43.618;25.336;2022-07-06T04:16:24;100353.53;;;24.21;100.00
30463;BME280;17256;43.618;25.336;2022-07-06T04:19:00;100345.50;;;24.10;100.00
30463;BME280;17256;43.618;25.336;2022-07-06T04:21:26;100369.63;;;24.11;100.00
30463;BME280;17256;43.618;25.336;2022-07-06T04:23:52;100290.19;;;23.57;100.00
30463;BME280;17256;43.618;25.336;2022-07-06T04:26:18;100426.09;;;24.38;100.00
30463;BME280;17256;43.618;25.336;2022-07-06T04:28:44;100429.44;;;24.40;100.00
30463;BME280;17256;43.618;25.336;2022-07-06T04:31:23;100410.78;;;24.49;100.00
30463;BME280;17256;43.618;25.336;2022-07-06T04:33:50;100442.44;;;24.84;100.00
30463;BME280;17256;43.618;25.336;2022-07-06T04:36:16;100342.00;;;24.23;100.00
30463;BME280;17256;43.618;25.336;2022-07-06T04:38:43;100239.09;;;23.66;100.00
30463;BME280;17256;43.618;25.336;2022-07-06T04:41:10;100291.31;;;24.14;100.00
30463;BME280;17256;43.618;25.336;2022-07-06T04:43:36;100353.81;;;24.73;100.00
30463;BME280;17256;43.618;25.336;2022-07-06T04:46:02;100266.78;;;24.25;100.00
30463;BME280;17256;43.618;25.336;2022-07-06T04:48:29;100303.06;;;24.45;100.00
30463;BME280;17256;43.618;25.336;2022-07-06T04:50:56;100290.63;;;24.51;100.00
30463;BME280;17256;43.618;25.336;2022-07-06T04:53:27;100310.59;;;24.93;100.00
30463;BME280;17256;43.618;25.336;2022-07-06T04:55:53;100336.84;;;25.26;100.00
30463;BME280;17256;43.618;25.336;2022-07-06T04:58:19;100294.41;;;25.08;100.00
30463;BME280;17256;43.618;25.336;2022-07-06T05:00:46;100424.56;;;26.03;100.00
30463;BME280;17256;43.618;25.336;2022-07-06T05:03:13;100362.31;;;25.53;100.00
30463;BME280;17256;43.618;25.336;2022-07-06T05:05:38;100319.97;;;25.63;100.00
30463;BME280;17256;43.618;25.336;2022-07-06T05:08:04;100388.69;;;26.27;100.00
30463;BME280;17256;43.618;25.336;2022-07-06T05:10:30;100325.94;;;25.94;100.00
30463;BME280;17256;43.618;25.336;2022-07-06T05:12:57;100313.44;;;26.00;100.00
30463;BME280;17256;43.618;25.336;2022-07-06T05:15:24;100340.81;;;26.27;100.00
30463;BME280;17256;43.618;25.336;2022-07-06T05:17:49;100338.00;;;26.27;100.00
30463;BME280;17256;43.618;25.336;2022-07-06T05:20:16;100506.22;;;27.42;100.00
30463;BME280;17256;43.618;25.336;2022-07-06T05:22:44;100282.53;;;26.28;100.00
30463;BME280;17256;43.618;25.336;2022-07-06T05:25:10;100318.03;;;26.43;100.00
30463;BME280;17256;43.618;25.336;2022-07-06T05:27:36;100473.00;;;27.25;100.00
30463;BME280;17256;43.618;25.336;2022-07-06T05:30:02;100507.59;;;27.58;100.00
30463;BME280;17256;43.618;25.336;2022-07-06T05:32:29;100365.16;;;26.51;100.00
30463;BME280;17256;43.618;25.336;2022-07-06T05:34:55;100308.47;;;26.11;100.00
30463;BME280;17256;43.618;25.336;2022-07-06T05:37:21;100377.16;;;26.70;100.00
30463;BME280;17256;43.618;25.336;2022-07-06T05:39:47;100409.66;;;26.81;100.00
30463;BME280;17256;43.618;25.336;2022-07-06T05:42:15;100385.00;;;27.28;100.00
30463;BME280;17256;43.618;25.336;2022-07-06T05:44:41;100361.00;;;26.89;100.00
30463;BME280;17256;43.618;25.336;2022-07-06T05:47:07;100335.75;;;26.71;100.00
30463;BME280;17256;43.618;25.336;2022-07-06T05:49:51;100380.56;;;27.49;100.00
30463;BME280;17256;43.618;25.336;2022-07-06T05:52:37;100505.34;;;28.55;97.10
30463;BME280;17256;43.618;25.336;2022-07-06T05:55:25;100513.81;;;28.32;97.93
30463;BME280;17256;43.618;25.336;2022-07-06T05:58:29;100195.38;;;26.09;97.74
30463;BME280;17256;43.618;25.336;2022-07-06T06:00:59;100521.16;;;28.19;93.89
30463;BME280;17256;43.618;25.336;2022-07-06T06:03:33;100515.69;;;28.59;93.31
30463;BME280;17256;43.618;25.336;2022-07-06T06:06:05;100516.81;;;28.80;89.08
30463;BME280;17256;43.618;25.336;2022-07-06T06:08:32;100208.78;;;27.17;87.76
30463;BME280;17256;43.618;25.336;2022-07-06T06:11:02;100456.78;;;29.06;87.36
30463;BME280;17256;43.618;25.336;2022-07-06T06:13:49;100516.72;;;29.65;84.28
30463;BME280;17256;43.618;25.336;2022-07-06T06:16:47;100362.16;;;29.03;81.49
30463;BME280;17256;43.618;25.336;2022-07-06T06:20:04;100514.59;;;29.96;79.68
30463;BME280;17256;43.618;25.336;2022-07-06T06:22:30;100449.22;;;29.41;79.94
30463;BME280;17256;43.618;25.336;2022-07-06T06:24:56;100328.72;;;28.57;77.05
30463;BME280;17256;43.618;25.336;2022-07-06T06:27:21;100318.47;;;28.78;75.47
30463;BME280;17256;43.618;25.336;2022-07-06T06:29:47;100507.84;;;30.32;73.35
30463;BME280;17256;43.618;25.336;2022-07-06T06:32:13;100308.31;;;29.60;70.49
30463;BME280;17256;43.618;25.336;2022-07-06T06:34:40;100385.72;;;29.90;68.94
30463;BME280;17256;43.618;25.336;2022-07-06T06:37:05;100380.06;;;29.73;68.93
30463;BME280;17256;43.618;25.336;2022-07-06T06:39:31;100430.84;;;29.87;70.73
30463;BME280;17256;43.618;25.336;2022-07-06T06:41:57;100497.06;;;29.51;71.51
30463;BME280;17256;43.618;25.336;2022-07-06T06:44:23;100360.50;;;28.32;75.55
30463;BME280;17256;43.618;25.336;2022-07-06T06:46:50;100529.00;;;29.12;78.72
30463;BME280;17256;43.618;25.336;2022-07-06T06:49:21;100466.31;;;27.98;81.76
30463;BME280;17256;43.618;25.336;2022-07-06T06:51:48;100419.09;;;27.54;84.96
30463;BME280;17256;43.618;25.336;2022-07-06T06:54:14;100422.19;;;27.80;86.35
30463;BME280;17256;43.618;25.336;2022-07-06T06:56:40;100336.75;;;27.66;86.21
30463;BME280;17256;43.618;25.336;2022-07-06T06:59:08;100379.75;;;28.07;82.62
30463;BME280;17256;43.618;25.336;2022-07-06T07:01:35;100485.00;;;28.75;84.10
30463;BME280;17256;43.618;25.336;2022-07-06T07:04:01;100487.47;;;29.30;81.50
30463;BME280;17256;43.618;25.336;2022-07-06T07:06:31;100373.66;;;28.45;79.97
30463;BME280;17256;43.618;25.336;2022-07-06T07:08:59;100273.72;;;27.70;80.68
30463;BME280;17256;43.618;25.336;2022-07-06T07:11:25;100342.66;;;28.54;81.38
30463;BME280;17256;43.618;25.336;2022-07-06T07:13:55;100369.38;;;28.47;81.40
30463;BME280;17256;43.618;25.336;2022-07-06T07:16:22;100401.13;;;28.84;80.67
30463;BME280;17256;43.618;25.336;2022-07-06T07:18:51;100378.16;;;28.46;79.26
30463;BME280;17256;43.618;25.336;2022-07-06T07:21:17;100221.28;;;27.24;79.06
30463;BME280;17256;43.618;25.336;2022-07-06T07:24:03;100549.56;;;29.04;81.21
30463;BME280;17256;43.618;25.336;2022-07-06T07:26:33;100529.91;;;29.30;81.90
30463;BME280;17256;43.618;25.336;2022-07-06T07:29:21;100468.91;;;29.46;77.18
30463;BME280;17256;43.618;25.336;2022-07-06T07:32:12;100548.88;;;29.69;77.30
30463;BME280;17256;43.618;25.336;2022-07-06T07:35:00;100560.22;;;29.38;77.82
30463;BME280;17256;43.618;25.336;2022-07-06T07:37:45;100257.91;;;27.02;81.13
30463;BME280;17256;43.618;25.336;2022-07-06T07:41:29;100379.31;;;27.42;84.80
30463;BME280;17256;43.618;25.336;2022-07-06T07:48:59;100230.19;;;26.13;90.45
30463;BME280;17256;43.618;25.336;2022-07-06T07:52:16;100244.78;;;26.15;88.35
30463;BME280;17256;43.618;25.336;2022-07-06T07:56:04;100215.25;;;25.53;92.69
30463;BME280;17256;43.618;25.336;2022-07-06T07:58:34;100335.34;;;26.63;92.79
30463;BME280;17256;43.618;25.336;2022-07-06T08:01:04;100332.81;;;26.76;90.15
30463;BME280;17256;43.618;25.336;2022-07-06T08:03:32;100439.34;;;27.70;88.16
30463;BME280;17256;43.618;25.336;2022-07-06T08:06:03;100559.97;;;28.72;87.21
30463;BME280;17256;43.618;25.336;2022-07-06T08:08:33;100550.75;;;28.80;85.02
30463;BME280;17256;43.618;25.336;2022-07-06T08:11:01;100549.09;;;29.10;82.44
30463;BME280;17256;43.618;25.336;2022-07-06T08:13:30;100557.16;;;28.95;80.92
30463;BME280;17256;43.618;25.336;2022-07-06T08:15:56;100366.97;;;27.65;81.15
30463;BME280;17256;43.618;25.336;2022-07-06T08:18:31;100553.56;;;29.03;79.45
30463;BME280;17256;43.618;25.336;2022-07-06T08:20:57;100339.41;;;27.48;78.91
30463;BME280;17256;43.618;25.336;2022-07-06T08:23:25;100319.16;;;27.46;79.38
30463;BME280;17256;43.618;25.336;2022-07-06T08:25:54;100226.00;;;26.79;80.42
30463;BME280;17256;43.618;25.336;2022-07-06T08:28:22;100239.66;;;26.72;79.11
30463;BME280;17256;43.618;25.336;2022-07-06T08:31:07;100546.78;;;29.13;78.20
30463;BME280;17256;43.618;25.336;2022-07-06T08:33:36;100546.88;;;28.99;75.15
30463;BME280;17256;43.618;25.336;2022-07-06T08:36:05;100495.13;;;28.45;76.62
30463;BME280;17256;43.618;25.336;2022-07-06T08:38:32;100394.72;;;27.72;80.19
30463;BME280;17256;43.618;25.336;2022-07-06T08:40:57;100559.59;;;28.65;80.26
30463;BME280;17256;43.618;25.336;2022-07-06T08:43:34;100383.34;;;27.27;82.01
30463;BME280;17256;43.618;25.336;2022-07-06T08:46:01;100485.31;;;27.70;83.50
30463;BME280;17256;43.618;25.336;2022-07-06T08:48:30;100365.88;;;26.97;82.04
30463;BME280;17256;43.618;25.336;2022-07-06T08:51:01;100441.19;;;27.11;84.32
30463;BME280;17256;43.618;25.336;2022-07-06T08:53:28;100396.13;;;26.51;86.07
30463;BME280;17256;43.618;25.336;2022-07-06T08:55:54;100366.00;;;26.38;86.45
30463;BME280;17256;43.618;25.336;2022-07-06T08:58:24;100400.41;;;26.48;88.23
30463;BME280;17256;43.618;25.336;2022-07-06T09:00:50;100453.72;;;27.05;88.31
30463;BME280;17256;43.618;25.336;2022-07-06T09:03:16;100578.53;;;27.65;88.59
30463;BME280;17256;43.618;25.336;2022-07-06T09:05:45;100252.72;;;25.67;88.25
30463;BME280;17256;43.618;25.336;2022-07-06T09:08:13;100427.69;;;26.80;89.13
30463;BME280;17256;43.618;25.336;2022-07-06T09:10:39;100384.72;;;26.28;91.07
30463;BME280;17256;43.618;25.336;2022-07-06T09:13:07;100586.56;;;27.44;90.02
30463;BME280;17256;43.618;25.336;2022-07-06T09:15:35;100393.63;;;26.35;90.42
30463;BME280;17256;43.618;25.336;2022-07-06T09:18:08;100467.72;;;27.10;89.87
30463;BME280;17256;43.618;25.336;2022-07-06T09:20:34;100577.88;;;27.96;90.17
30463;BME280;17256;43.618;25.336;2022-07-06T09:23:05;100575.03;;;28.09;88.97
30463;BME280;17256;43.618;25.336;2022-07-06T09:25:35;100503.38;;;27.83;87.00
30463;BME280;17256;43.618;25.336;2022-07-06T09:28:04;100480.25;;;27.31;85.82
30463;BME280;17256;43.618;25.336;2022-07-06T09:30:33;100498.50;;;27.20;87.30
30463;BME280;17256;43.618;25.336;2022-07-06T09:32:59;100381.25;;;26.91;85.99
30463;BME280;17256;43.618;25.336;2022-07-06T09:35:27;100548.56;;;28.55;82.50
30463;BME280;17256;43.618;25.336;2022-07-06T09:38:05;100587.94;;;28.96;79.54
30463;BME280;17256;43.618;25.336;2022-07-06T09:40:35;100493.94;;;28.24;79.22
30463;BME280;17256;43.618;25.336;2022-07-06T09:43:21;100485.09;;;28.16;79.68
30463;BME280;17256;43.618;25.336;2022-07-06T09:45:56;100267.78;;;27.13;80.83
30463;BME280;17256;43.618;25.336;2022-07-06T09:48:26;100466.13;;;28.31;77.01
30463;BME280;17256;43.618;25.336;2022-07-06T09:51:12;100247.88;;;27.32;74.39
30463;BME280;17256;43.618;25.336;2022-07-06T09:53:51;100267.03;;;27.88;74.10
30463;BME280;17256;43.618;25.336;2022-07-06T09:56:38;100282.16;;;28.24;72.82
30463;BME280;17256;43.618;25.336;2022-07-06T09:59:26;100281.59;;;28.04;70.92
30463;BME280;17256;43.618;25.336;2022-07-06T10:02:07;100382.78;;;29.13;69.87
30463;BME280;17256;43.618;25.336;2022-07-06T10:05:18;100571.03;;;29.76;71.19
30463;BME280;17256;43.618;25.336;2022-07-06T10:07:53;100296.13;;;28.51;72.59
30463;BME280;17256;43.618;25.336;2022-07-06T10:10:34;100215.75;;;27.19;69.61
30463;BME280;17256;43.618;25.336;2022-07-06T10:13:04;100582.38;;;29.76;72.38
30463;BME280;17256;43.618;25.336;2022-07-06T10:15:38;100232.78;;;28.04;70.17
30463;BME280;17256;43.618;25.336;2022-07-06T10:18:16;100461.94;;;29.04;71.21
30463;BME280;17256;43.618;25.336;2022-07-06T10:20:45;100346.09;;;28.19;72.74
30463;BME280;17256;43.618;25.336;2022-07-06T10:23:14;100372.75;;;28.05;71.99
30463;BME280;17256;43.618;25.336;2022-07-06T10:25:41;100461.84;;;28.19;75.90
30463;BME280;17256;43.618;25.336;2022-07-06T10:28:08;100404.16;;;27.67;78.47
30463;BME280;17256;43.618;25.336;2022-07-06T10:30:42;100368.44;;;27.85;76.57
30463;BME280;17256;43.618;25.336;2022-07-06T10:33:14;100439.94;;;28.70;76.69
30463;BME280;17256;43.618;25.336;2022-07-06T10:35:44;100391.28;;;28.42;76.05
30463;BME280;17256;43.618;25.336;2022-07-06T10:38:52;100321.69;;;28.24;73.28
30463;BME280;17256;43.618;25.336;2022-07-06T10:45:53;100568.06;;;29.10;76.91
30463;BME280;17256;43.618;25.336;2022-07-06T10:56:40;100334.72;;;27.44;80.16
30463;BME280;17256;43.618;25.336;2022-07-06T10:59:22;100533.38;;;28.73;81.06
30463;BME280;17256;43.618;25.336;2022-07-06T11:02:12;100530.78;;;28.55;83.07
30463;BME280;17256;43.618;25.336;2022-07-06T11:04:41;100321.56;;;27.39;84.25
30463;BME280;17256;43.618;25.336;2022-07-06T11:07:19;100397.44;;;27.77;83.56
30463;BME280;17256;43.618;25.336;2022-07-06T11:09:55;100237.72;;;26.95;82.15
30463;BME280;17256;43.618;25.336;2022-07-06T11:12:21;100303.91;;;27.11;82.18
30463;BME280;17256;43.618;25.336;2022-07-06T11:14:48;100352.72;;;27.34;83.02
30463;BME280;17256;43.618;25.336;2022-07-06T11:17:16;100525.50;;;28.62;83.95
30463;BME280;17256;43.618;25.336;2022-07-06T11:22:20;100351.50;;;27.49;84.19
30463;BME280;17256;43.618;25.336;2022-07-06T11:24:47;100529.16;;;28.40;84.04
30463;BME280;17256;43.618;25.336;2022-07-06T11:27:16;100270.53;;;27.05;82.79
30463;BME280;17256;43.618;25.336;2022-07-06T11:29:46;100323.44;;;26.94;81.88
30463;BME280;17256;43.618;25.336;2022-07-06T11:32:14;100331.50;;;26.59;84.97
30463;BME280;17256;43.618;25.336;2022-07-06T11:34:47;100211.31;;;25.86;86.70
30463;BME280;17256;43.618;25.336;2022-07-06T11:37:19;100421.97;;;27.13;87.01
30463;BME280;17256;43.618;25.336;2022-07-06T11:39:47;100336.91;;;26.56;87.93
30463;BME280;17256;43.618;25.336;2022-07-06T11:42:21;100450.38;;;27.30;89.19
30463;BME280;17256;43.618;25.336;2022-07-06T11:44:53;100392.63;;;26.86;88.90
30463;BME280;17256;43.618;25.336;2022-07-06T11:47:30;100437.84;;;27.09;89.12
30463;BME280;17256;43.618;25.336;2022-07-06T11:49:57;100336.75;;;26.33;89.89
30463;BME280;17256;43.618;25.336;2022-07-06T11:52:30;100451.13;;;27.08;90.70
30463;BME280;17256;43.618;25.336;2022-07-06T11:55:15;100505.47;;;27.50;90.49
30463;BME280;17256;43.618;25.336;2022-07-06T11:58:17;100127.66;;;24.99;90.75
30463;BME280;17256;43.618;25.336;2022-07-06T12:01:15;100173.84;;;25.26;92.83
30463;BME280;17256;43.618;25.336;2022-07-06T12:04:08;100330.53;;;26.36;93.28
30463;BME280;17256;43.618;25.336;2022-07-06T12:06:45;100503.41;;;27.55;92.07
30463;BME280;17256;43.618;25.336;2022-07-06T12:09:15;100499.44;;;27.43;92.16
30463;BME280;17256;43.618;25.336;2022-07-06T12:11:47;100267.25;;;26.01;92.03
30463;BME280;17256;43.618;25.336;2022-07-06T12:14:20;100175.25;;;25.42;92.00
30463;BME280;17256;43.618;25.336;2022-07-06T12:19:36;100424.16;;;27.16;91.31
30463;BME280;17256;43.618;25.336;2022-07-06T12:22:06;100276.16;;;26.09;91.75
30463;BME280;17256;43.618;25.336;2022-07-06T12:24:42;100269.38;;;26.10;92.64
30463;BME280;17256;43.618;25.336;2022-07-06T12:27:11;100485.66;;;27.55;92.96
30463;BME280;17256;43.618;25.336;2022-07-06T12:30:04;100159.47;;;25.60;92.64
30463;BME280;17256;43.618;25.336;2022-07-06T12:32:40;100359.75;;;26.95;92.90
30463;BME280;17256;43.618;25.336;2022-07-06T12:35:09;100258.06;;;26.42;91.32
30463;BME280;17256;43.618;25.336;2022-07-06T12:37:54;100107.78;;;25.42;91.58
30463;BME280;17256;43.618;25.336;2022-07-06T12:40:27;100213.59;;;25.98;92.44
30463;BME280;17256;43.618;25.336;2022-07-06T12:42:57;100467.03;;;27.68;92.98
30463;BME280;17256;43.618;25.336;2022-07-06T12:45:27;100458.97;;;27.75;92.82
30463;BME280;17256;43.618;25.336;2022-07-06T12:48:00;100367.59;;;27.12;93.88
30463;BME280;17256;43.618;25.336;2022-07-06T12:50:39;100455.13;;;27.57;94.67
30463;BME280;17256;43.618;25.336;2022-07-06T12:53:24;100117.84;;;25.75;93.43
30463;BME280;17256;43.618;25.336;2022-07-06T12:56:16;100221.47;;;26.42;94.14
30463;BME280;17256;43.618;25.336;2022-07-06T12:59:02;100452.50;;;27.74;93.65
30463;BME280;17256;43.618;25.336;2022-07-06T13:01:28;100335.75;;;27.12;96.71
30463;BME280;17256;43.618;25.336;2022-07-06T13:03:59;100315.28;;;26.92;97.52
30463;BME280;17256;43.618;25.336;2022-07-06T13:06:31;100432.69;;;27.66;97.90
30463;BME280;17256;43.618;25.336;2022-07-06T13:09:00;100096.97;;;25.63;98.04
30463;BME280;17256;43.618;25.336;2022-07-06T13:11:26;100420.63;;;27.74;99.49
30463;BME280;17256;43.618;25.336;2022-07-06T13:13:58;100405.00;;;27.90;97.47
30463;BME280;17256;43.618;25.336;2022-07-06T13:16:27;100228.50;;;26.81;97.40
30463;BME280;17256;43.618;25.336;2022-07-06T13:19:03;100082.38;;;26.16;95.47